createdAt,value
2018-04-26T00:00:06.642Z,11.00
2018-04-26T00:02:34.201Z,10.27
2018-04-26T00:05:01.756Z,10.97
2018-04-26T00:07:29.414Z,10.33
2018-04-26T00:09:56.965Z,10.83
2018-04-26T00:12:24.549Z,10.63
2018-04-26T00:14:52.199Z,10.87
2018-04-26T00:17:19.795Z,10.93
2018-04-26T00:19:47.462Z,10.50
2018-04-26T00:22:15.006Z,9.97
2018-04-26T00:24:42.682Z,9.77
2018-04-26T00:27:11.023Z,11.40
2018-04-26T00:29:38.574Z,10.90
2018-04-26T00:32:06.179Z,12.87
2018-04-26T00:34:33.799Z,10.67
2018-04-26T00:37:01.350Z,11.70
2018-04-26T00:39:28.937Z,10.80
2018-04-26T00:41:56.583Z,11.80
2018-04-26T00:44:24.181Z,11.07
2018-04-26T00:46:51.851Z,11.03
2018-04-26T00:49:19.393Z,11.70
2018-04-26T00:51:58.509Z,12.17
2018-04-26T00:54:26.130Z,13.03
2018-04-26T00:56:53.801Z,12.97
2018-04-26T00:59:21.414Z,14.03
2018-04-26T01:01:48.961Z,13.37
2018-04-26T01:04:16.670Z,14.30
2018-04-26T01:06:44.225Z,13.33
2018-04-26T01:09:12.706Z,14.10
2018-04-26T01:11:40.330Z,13.83
2018-04-26T01:14:07.924Z,14.10
2018-04-26T01:16:35.470Z,14.60
2018-04-26T01:19:03.017Z,12.67
2018-04-26T01:21:30.610Z,13.10
2018-04-26T01:23:58.166Z,14.23
2018-04-26T01:26:25.773Z,13.53
2018-04-26T01:28:53.364Z,15.03
2018-04-26T01:31:20.979Z,15.03
2018-04-26T01:33:48.543Z,16.10
2018-04-26T01:36:27.967Z,15.37
2018-04-26T01:38:55.580Z,14.87
2018-04-26T01:41:23.285Z,15.37
2018-04-26T01:43:50.848Z,13.97
2018-04-26T01:46:18.467Z,13.73
2018-04-26T01:48:46.935Z,14.30
2018-04-26T01:51:14.495Z,13.73
2018-04-26T01:53:42.223Z,15.57
2018-04-26T01:56:09.780Z,13.97
2018-04-26T01:58:37.338Z,13.53
2018-04-26T02:01:05.046Z,12.60
2018-04-26T02:03:32.607Z,14.33
2018-04-26T02:06:00.171Z,13.20
2018-04-26T02:08:27.776Z,12.97
2018-04-26T02:10:55.336Z,13.43
2018-04-26T02:13:22.938Z,13.23
2018-04-26T02:15:50.535Z,13.27
2018-04-26T02:18:18.167Z,14.33
2018-04-26T02:20:45.772Z,14.10
2018-04-26T02:23:13.352Z,13.63
2018-04-26T02:25:40.942Z,13.47
2018-04-26T02:28:08.538Z,13.60
2018-04-26T02:30:36.203Z,13.80
2018-04-26T02:33:03.751Z,15.60
2018-04-26T02:35:31.305Z,14.40
2018-04-26T02:37:58.903Z,15.20
2018-04-26T02:40:26.519Z,16.03
2018-04-26T02:42:54.138Z,15.47
2018-04-26T02:45:21.722Z,15.73
2018-04-26T02:47:49.330Z,15.60
2018-04-26T02:50:16.893Z,15.40
2018-04-26T02:52:44.487Z,16.07
2018-04-26T02:55:12.099Z,15.47
2018-04-26T02:57:39.763Z,15.37
2018-04-26T03:00:07.323Z,15.73
2018-04-26T03:02:34.985Z,16.10
2018-04-26T03:05:02.536Z,15.77
2018-04-26T03:07:30.103Z,15.47
2018-04-26T03:09:57.700Z,16.47
2018-04-26T03:12:25.328Z,17.10
2018-04-26T03:14:53.776Z,18.20
2018-04-26T03:17:21.331Z,18.83
2018-04-26T03:19:48.927Z,19.63
2018-04-26T03:22:16.486Z,23.63
2018-04-26T03:24:44.139Z,23.43
2018-04-26T03:27:11.690Z,21.23
2018-04-26T03:29:39.288Z,21.77
2018-04-26T03:32:06.854Z,24.03
2018-04-26T03:34:34.523Z,21.70
2018-04-26T03:37:02.151Z,19.07
2018-04-26T03:39:29.706Z,16.80
2018-04-26T03:41:57.325Z,17.50
2018-04-26T03:44:24.948Z,15.57
2018-04-26T03:46:52.499Z,14.97
2018-04-26T03:49:20.130Z,15.60
2018-04-26T03:51:47.691Z,16.00
2018-04-26T03:54:15.246Z,15.50
2018-04-26T03:56:42.849Z,13.77
2018-04-26T03:59:10.409Z,14.40
2018-04-26T04:01:49.792Z,14.23
2018-04-26T04:04:29.219Z,14.47
2018-04-26T04:06:56.904Z,14.03
2018-04-26T04:09:24.507Z,13.87
2018-04-26T04:11:52.853Z,14.40
2018-04-26T04:14:20.523Z,15.13
2018-04-26T04:16:48.152Z,14.03
2018-04-26T04:19:15.713Z,14.47
2018-04-26T04:21:43.272Z,14.30
2018-04-26T04:24:11.003Z,12.83
2018-04-26T04:26:38.558Z,13.87
2018-04-26T04:29:06.111Z,13.77
2018-04-26T04:31:33.712Z,14.03
2018-04-26T04:34:01.329Z,14.30
2018-04-26T04:36:28.984Z,13.37
2018-04-26T04:38:56.547Z,13.43
2018-04-26T04:41:24.200Z,12.83
2018-04-26T04:43:51.928Z,12.83
2018-04-26T04:46:19.546Z,12.20
2018-04-26T04:48:47.167Z,11.17
2018-04-26T04:51:14.783Z,11.07
2018-04-26T04:53:42.407Z,11.30
2018-04-26T04:56:10.015Z,12.03
2018-04-26T04:58:38.450Z,11.20
2018-04-26T05:01:06.015Z,11.40
2018-04-26T05:03:33.666Z,10.70
2018-04-26T05:06:01.280Z,11.10
2018-04-26T05:08:28.870Z,10.77
2018-04-26T05:10:57.315Z,11.17
2018-04-26T05:13:24.937Z,10.20
2018-04-26T05:15:52.498Z,11.27
2018-04-26T05:18:20.638Z,11.33
2018-04-26T05:20:48.198Z,11.07
2018-04-26T05:23:15.763Z,11.57
2018-04-26T05:25:43.427Z,11.67
2018-04-26T05:28:11.139Z,10.63
2018-04-26T05:30:38.700Z,12.07
2018-04-26T05:33:07.018Z,11.80
2018-04-26T05:35:34.599Z,12.75
2018-04-26T05:38:02.220Z,57.03
2018-04-26T05:40:29.812Z,11.93
2018-04-26T05:42:57.542Z,10.43
2018-04-26T05:45:25.109Z,13.03
2018-04-26T05:47:52.700Z,12.27
2018-04-26T05:50:21.403Z,40.23
2018-04-26T05:52:48.963Z,26.37
2018-04-26T05:55:16.514Z,15.27
2018-04-26T05:57:44.537Z,14.37
2018-04-26T06:00:12.191Z,9.27
2018-04-26T06:02:40.519Z,10.80
2018-04-26T06:05:08.081Z,10.47
2018-04-26T06:07:35.735Z,11.87
2018-04-26T06:10:03.339Z,11.30
2018-04-26T06:12:30.942Z,9.77
2018-04-26T06:14:58.551Z,15.63
2018-04-26T06:17:26.750Z,9.67
2018-04-26T06:19:54.419Z,12.73
2018-04-26T06:22:22.029Z,10.37
2018-04-26T06:24:49.627Z,9.70
2018-04-26T06:27:17.263Z,13.20
2018-04-26T06:29:45.698Z,11.97
2018-04-26T06:32:13.415Z,10.67
2018-04-26T06:34:41.006Z,9.30
2018-04-26T06:37:08.606Z,9.37
2018-04-26T06:39:37.201Z,10.20
2018-04-26T06:42:04.850Z,10.50
2018-04-26T06:44:32.395Z,6.57
2018-04-26T06:46:59.960Z,7.20
2018-04-26T06:49:27.588Z,8.40
2018-04-26T06:51:55.931Z,7.60
2018-04-26T06:54:24.209Z,8.10
2018-04-26T06:56:52.015Z,7.90
2018-04-26T06:59:19.939Z,8.63
2018-04-26T07:01:47.550Z,10.70
2018-04-26T07:04:15.178Z,9.60
2018-04-26T07:06:42.776Z,8.10
2018-04-26T07:09:10.954Z,7.00
2018-04-26T07:11:38.498Z,6.82
2018-04-26T07:14:06.056Z,6.65
2018-04-26T07:16:33.674Z,7.05
2018-04-26T07:19:01.223Z,7.37
2018-04-26T07:21:28.785Z,8.55
2018-04-26T07:23:56.580Z,7.68
2018-04-26T07:26:25.102Z,7.20
2018-04-26T07:28:52.734Z,6.75
2018-04-26T07:31:20.286Z,5.30
2018-04-26T07:33:48.688Z,5.45
2018-04-26T07:36:17.052Z,5.90
2018-04-26T07:38:44.727Z,5.10
2018-04-26T07:41:12.285Z,5.75
2018-04-26T07:43:39.844Z,5.70
2018-04-26T07:46:07.472Z,5.07
2018-04-26T07:48:36.245Z,6.00
2018-04-26T07:51:04.442Z,6.20
2018-04-26T07:53:32.046Z,8.20
2018-04-26T07:55:59.796Z,5.18
2018-04-26T07:58:27.411Z,5.25
2018-04-26T08:00:54.982Z,7.37
2018-04-26T08:03:22.580Z,7.47
2018-04-26T08:05:50.207Z,7.78
2018-04-26T08:08:17.886Z,6.75
2018-04-26T08:10:46.451Z,6.07
2018-04-26T08:13:14.114Z,6.53
2018-04-26T08:15:41.692Z,6.75
2018-04-26T08:18:09.296Z,6.80
2018-04-26T08:20:36.901Z,7.75
2018-04-26T08:23:04.473Z,6.55
2018-04-26T08:25:32.076Z,5.93
2018-04-26T08:27:59.675Z,5.82
2018-04-26T08:30:27.317Z,6.55
2018-04-26T08:32:54.882Z,5.40
2018-04-26T08:35:22.435Z,5.30
2018-04-26T08:37:50.763Z,6.43
2018-04-26T08:40:18.376Z,7.95
2018-04-26T08:42:46.212Z,7.78
2018-04-26T08:45:13.881Z,7.07
2018-04-26T08:47:41.445Z,11.93
2018-04-26T08:50:09.312Z,6.82
2018-04-26T08:52:37.023Z,8.88
2018-04-26T08:55:04.634Z,7.18
2018-04-26T08:57:33.167Z,8.68
2018-04-26T09:00:00.778Z,6.05
2018-04-26T09:02:28.529Z,6.87
2018-04-26T09:04:56.350Z,6.15
2018-04-26T09:07:24.083Z,6.00
2018-04-26T09:09:51.643Z,6.22
2018-04-26T09:12:19.194Z,6.55
2018-04-26T09:14:47.235Z,7.65
2018-04-26T09:17:15.555Z,6.15
2018-04-26T09:19:43.253Z,5.93
2018-04-26T09:22:10.860Z,5.47
2018-04-26T09:24:38.707Z,5.62
2018-04-26T09:27:06.414Z,5.68
2018-04-26T09:29:34.084Z,5.47
2018-04-26T09:32:01.651Z,5.12
2018-04-26T09:34:29.275Z,4.93
2018-04-26T09:36:56.971Z,4.37
2018-04-26T09:39:25.176Z,4.40
2018-04-26T09:41:52.744Z,4.93
2018-04-26T09:44:20.816Z,4.97
2018-04-26T09:46:48.848Z,5.22
2018-04-26T09:49:16.443Z,5.65
2018-04-26T09:51:44.099Z,4.60
2018-04-26T09:54:11.710Z,5.05
2018-04-26T09:56:40.324Z,5.27
2018-04-26T09:59:07.995Z,3.97
2018-04-26T10:01:36.495Z,3.40
2018-04-26T10:04:09.658Z,6.90
2018-04-26T10:09:35.360Z,4.65
2018-04-26T10:12:02.985Z,5.95
2018-04-26T10:14:30.631Z,3.87
2018-04-26T10:16:58.758Z,5.82
2018-04-26T10:19:26.825Z,5.20
2018-04-26T10:21:54.725Z,5.57
2018-04-26T10:24:22.873Z,5.50
2018-04-26T10:26:51.934Z,3.92
2018-04-26T10:29:19.546Z,4.70
2018-04-26T10:31:47.272Z,5.03
2018-04-26T10:34:15.530Z,4.53
2018-04-26T10:36:43.104Z,6.57
2018-04-26T10:39:10.811Z,5.50
2018-04-26T10:41:38.423Z,5.28
2018-04-26T10:44:06.005Z,5.22
2018-04-26T10:46:34.170Z,4.37
2018-04-26T10:49:01.736Z,6.68
2018-04-26T10:51:30.256Z,6.55
2018-04-26T10:53:57.877Z,5.82
2018-04-26T10:56:25.449Z,4.72
2018-04-26T10:58:53.072Z,5.35
2018-04-26T11:01:20.627Z,5.07
2018-04-26T11:03:48.515Z,4.62
2018-04-26T11:06:16.143Z,4.22
2018-04-26T11:08:43.811Z,3.50
2018-04-26T11:11:11.478Z,4.20
2018-04-26T11:13:39.150Z,3.37
2018-04-26T11:16:07.783Z,3.53
2018-04-26T11:18:35.870Z,4.43
2018-04-26T11:21:03.909Z,3.97
2018-04-26T11:23:32.510Z,3.95
2018-04-26T11:26:00.153Z,4.22
2018-04-26T11:28:28.506Z,3.70
2018-04-26T11:30:56.120Z,3.40
2018-04-26T11:33:23.690Z,4.22
2018-04-26T11:35:51.295Z,3.70
2018-04-26T11:38:20.089Z,4.97
2018-04-26T11:40:47.655Z,4.50
2018-04-26T11:43:15.355Z,5.00
2018-04-26T11:45:42.955Z,6.32
2018-04-26T11:48:10.537Z,4.97
2018-04-26T11:50:38.156Z,4.37
2018-04-26T11:53:05.800Z,4.30
2018-04-26T11:55:33.480Z,3.37
2018-04-26T11:58:02.823Z,2.97
2018-04-26T12:00:31.019Z,3.12
2018-04-26T12:02:59.146Z,4.50
2018-04-26T12:05:26.707Z,4.85
2018-04-26T12:07:54.360Z,4.53
2018-04-26T12:10:22.031Z,7.68
2018-04-26T12:12:49.731Z,4.78
2018-04-26T12:15:17.303Z,5.60
2018-04-26T12:17:44.923Z,5.57
2018-04-26T12:20:12.609Z,3.87
2018-04-26T12:22:41.166Z,4.60
2018-04-26T12:25:09.063Z,5.05
2018-04-26T12:27:36.679Z,4.62
2018-04-26T12:30:04.309Z,5.07
2018-04-26T12:32:31.869Z,4.53
2018-04-26T12:34:59.485Z,4.35
2018-04-26T12:37:27.904Z,3.72
2018-04-26T12:39:55.550Z,4.97
2018-04-26T12:42:24.066Z,4.50
2018-04-26T12:44:51.748Z,4.28
2018-04-26T12:47:20.970Z,5.03
2018-04-26T12:49:49.671Z,3.90
2018-04-26T12:52:17.404Z,6.57
2018-04-26T12:54:44.986Z,3.45
2018-04-26T12:57:13.942Z,4.62
2018-04-26T12:59:41.508Z,7.18
2018-04-26T13:02:09.814Z,5.00
2018-04-26T13:04:37.549Z,4.65
2018-04-26T13:07:05.270Z,4.50
2018-04-26T13:09:32.889Z,7.05
2018-04-26T13:12:00.538Z,4.03
2018-04-26T13:14:28.114Z,7.07
2018-04-26T13:16:55.807Z,4.78
2018-04-26T13:19:23.424Z,5.53
2018-04-26T13:21:50.983Z,5.85
2018-04-26T13:24:18.649Z,3.78
2018-04-26T13:26:46.319Z,4.55
2018-04-26T13:29:13.900Z,5.57
2018-04-26T13:31:41.622Z,4.75
2018-04-26T13:34:09.188Z,5.55
2018-04-26T13:36:36.752Z,5.22
2018-04-26T13:39:04.440Z,6.55
2018-04-26T13:41:31.990Z,4.10
2018-04-26T13:43:59.551Z,5.57
2018-04-26T13:46:27.232Z,5.65
2018-04-26T13:48:55.646Z,5.10
2018-04-26T13:51:23.284Z,4.00
2018-04-26T13:53:50.839Z,4.25
2018-04-26T13:56:18.445Z,3.80
2018-04-26T13:58:45.992Z,3.58
2018-04-26T14:01:13.606Z,3.30
2018-04-26T14:03:41.207Z,3.70
2018-04-26T14:06:08.759Z,3.90
2018-04-26T14:08:36.329Z,3.37
2018-04-26T14:11:04.847Z,3.72
2018-04-26T14:13:32.402Z,3.65
2018-04-26T14:16:00.021Z,3.40
2018-04-26T14:18:27.568Z,3.62
2018-04-26T14:20:55.123Z,3.67
2018-04-26T14:23:22.790Z,4.80
2018-04-26T14:25:50.303Z,3.92
2018-04-26T14:28:18.901Z,7.00
2018-04-26T14:30:46.455Z,5.85
2018-04-26T14:33:14.077Z,6.47
2018-04-26T14:35:41.728Z,6.30
2018-04-26T14:38:10.088Z,9.40
2018-04-26T14:40:37.642Z,5.82
2018-04-26T14:43:05.256Z,5.72
2018-04-26T14:45:32.875Z,7.82
2018-04-26T14:48:00.552Z,7.95
2018-04-26T14:50:28.202Z,7.28
2018-04-26T14:52:55.751Z,3.50
2018-04-26T14:55:23.322Z,3.00
2018-04-26T14:57:50.939Z,3.20
2018-04-26T15:00:18.491Z,3.75
2018-04-26T15:02:46.043Z,3.62
2018-04-26T15:05:13.647Z,3.28
2018-04-26T15:07:41.194Z,2.80
2018-04-26T15:10:08.800Z,2.40
2018-04-26T15:12:36.416Z,2.60
2018-04-26T15:15:04.023Z,2.90
2018-04-26T15:17:31.581Z,2.70
2018-04-26T15:19:59.222Z,2.42
2018-04-26T15:22:26.799Z,3.25
2018-04-26T15:24:54.365Z,3.15
2018-04-26T15:27:21.980Z,3.65
2018-04-26T15:29:49.537Z,3.65
2018-04-26T15:32:17.192Z,3.58
2018-04-26T15:34:44.751Z,3.75
2018-04-26T15:37:12.404Z,2.92
2018-04-26T15:39:40.109Z,3.35
2018-04-26T15:42:07.715Z,3.80
2018-04-26T15:44:35.271Z,4.72
2018-04-26T15:47:02.908Z,4.43
2018-04-26T15:49:30.516Z,3.20
2018-04-26T15:51:58.128Z,3.08
2018-04-26T15:54:36.504Z,4.25
2018-04-26T15:57:12.827Z,3.55
2018-04-26T15:59:52.220Z,4.07
2018-04-26T16:05:44.506Z,3.67
2018-04-26T16:08:29.410Z,3.90
2018-04-26T16:11:14.462Z,3.53
2018-04-26T16:13:59.412Z,3.70
2018-04-26T16:16:44.567Z,4.28
2018-04-26T16:23:05.152Z,4.15
2018-04-26T16:25:44.343Z,4.37
2018-04-26T16:32:00.059Z,3.58
2018-04-26T16:34:50.787Z,4.43
2018-04-26T16:37:35.782Z,3.67
2018-04-26T16:40:03.399Z,4.20
2018-04-26T16:42:30.951Z,4.55
2018-04-26T16:44:58.527Z,4.78
2018-04-26T16:47:26.705Z,4.10
2018-04-26T16:49:54.266Z,3.67
2018-04-26T16:52:21.859Z,4.30
2018-04-26T16:54:51.119Z,3.95
2018-04-26T16:57:18.738Z,5.07
2018-04-26T16:59:47.179Z,4.72
2018-04-26T17:02:14.788Z,4.53
2018-04-26T17:04:42.444Z,4.30
2018-04-26T17:07:10.048Z,4.70
2018-04-26T17:09:37.721Z,5.07
2018-04-26T17:12:06.416Z,5.20
2018-04-26T17:14:34.012Z,4.50
2018-04-26T17:17:02.902Z,4.25
2018-04-26T17:19:30.691Z,4.82
2018-04-26T17:21:58.312Z,4.87
2018-04-26T17:24:25.926Z,4.73
2018-04-26T17:26:53.567Z,5.55
2018-04-26T17:29:22.055Z,5.70
2018-04-26T17:31:51.102Z,5.50
2018-04-26T17:34:19.672Z,5.33
2018-04-26T17:36:47.337Z,6.53
2018-04-26T17:39:14.945Z,5.10
2018-04-26T17:41:42.561Z,5.10
2018-04-26T17:44:10.244Z,6.17
2018-04-26T17:46:37.802Z,6.43
2018-04-26T17:49:05.458Z,4.50
2018-04-26T17:51:33.083Z,4.53
2018-04-26T17:54:00.694Z,4.50
2018-04-26T17:56:28.246Z,6.87
2018-04-26T17:58:55.795Z,3.87
2018-04-26T18:01:23.464Z,3.90
2018-04-26T18:03:51.064Z,4.07
2018-04-26T18:06:18.682Z,4.20
2018-04-26T18:08:47.082Z,4.87
2018-04-26T18:11:14.651Z,4.53
2018-04-26T18:13:43.150Z,4.23
2018-04-26T18:16:10.764Z,4.20
2018-04-26T18:18:38.311Z,3.40
2018-04-26T18:21:05.984Z,4.30
2018-04-26T18:23:34.474Z,3.83
2018-04-26T18:26:02.079Z,5.33
2018-04-26T18:28:29.704Z,3.73
2018-04-26T18:30:57.384Z,4.30
2018-04-26T18:33:25.056Z,4.07
2018-04-26T18:35:54.137Z,3.40
2018-04-26T18:38:23.167Z,4.53
2018-04-26T18:40:51.743Z,3.80
2018-04-26T18:43:19.819Z,3.83
2018-04-26T18:45:48.412Z,3.90
2018-04-26T18:48:17.104Z,3.30
2018-04-26T18:50:44.754Z,3.53
2018-04-26T18:53:12.404Z,4.80
2018-04-26T18:55:40.955Z,3.83
2018-04-26T18:58:08.922Z,4.80
2018-04-26T19:00:36.478Z,5.00
2018-04-26T19:03:04.033Z,4.00
2018-04-26T19:05:31.630Z,4.00
2018-04-26T19:07:59.229Z,3.90
2018-04-26T19:10:26.827Z,5.73
2018-04-26T19:12:54.522Z,5.50
2018-04-26T19:15:22.133Z,5.07
2018-04-26T19:17:50.356Z,4.70
2018-04-26T19:20:17.979Z,5.77
2018-04-26T19:22:45.637Z,6.30
2018-04-26T19:25:13.566Z,5.40
2018-04-26T19:27:41.268Z,5.50
2018-04-26T19:30:10.354Z,5.37
2018-04-26T19:32:37.922Z,6.43
2018-04-26T19:35:05.572Z,7.10
2018-04-26T19:37:33.224Z,7.60
2018-04-26T19:40:01.641Z,7.90
2018-04-26T19:42:29.238Z,8.27
2018-04-26T19:44:56.871Z,7.90
2018-04-26T19:47:24.969Z,8.97
2018-04-26T19:49:53.759Z,8.77
2018-04-26T19:52:21.312Z,9.40
2018-04-26T19:54:49.751Z,8.90
2018-04-26T19:57:17.373Z,8.70
2018-04-26T19:59:45.904Z,9.53
2018-04-26T20:02:13.505Z,8.90
2018-04-26T20:04:41.102Z,10.10
2018-04-26T20:07:08.724Z,9.43
2018-04-26T20:09:36.378Z,9.80
2018-04-26T20:12:04.068Z,8.53
2018-04-26T20:14:32.560Z,9.30
2018-04-26T20:17:00.123Z,7.83
2018-04-26T20:19:27.775Z,8.77
2018-04-26T20:21:55.400Z,7.93
2018-04-26T20:24:22.994Z,9.47
2018-04-26T20:26:51.243Z,8.13
2018-04-26T20:29:18.918Z,7.13
2018-04-26T20:31:46.524Z,8.63
2018-04-26T20:34:14.162Z,8.77
2018-04-26T20:36:41.715Z,8.80
2018-04-26T20:39:10.195Z,7.57
2018-04-26T20:41:49.466Z,8.13
2018-04-26T20:44:28.767Z,6.83
2018-04-26T20:46:57.351Z,6.67
2018-04-26T20:49:24.898Z,5.93
2018-04-26T20:51:52.459Z,4.50
2018-04-26T20:54:20.250Z,4.53
2018-04-26T20:56:47.807Z,4.53
2018-04-26T20:59:15.406Z,4.00
2018-04-26T21:01:43.011Z,4.37
2018-04-26T21:04:10.714Z,5.37
2018-04-26T21:06:38.355Z,8.37
2018-04-26T21:09:06.176Z,6.60
2018-04-26T21:11:33.905Z,6.50
2018-04-26T21:14:01.554Z,6.37
2018-04-26T21:16:29.282Z,6.10
2018-04-26T21:18:56.961Z,5.93
2018-04-26T21:21:24.609Z,4.77
2018-04-26T21:23:52.213Z,4.77
2018-04-26T21:26:19.931Z,4.87
2018-04-26T21:28:47.531Z,4.40
2018-04-26T21:31:15.221Z,4.47
2018-04-26T21:33:42.823Z,4.70
2018-04-26T21:36:10.495Z,5.07
2018-04-26T21:38:38.205Z,4.37
2018-04-26T21:41:05.871Z,4.53
2018-04-26T21:43:33.469Z,4.87
2018-04-26T21:46:01.074Z,4.87
2018-04-26T21:48:28.722Z,4.20
2018-04-26T21:51:01.998Z,4.87
2018-04-26T21:53:35.135Z,4.97
2018-04-26T21:56:08.322Z,4.80
2018-04-26T21:58:41.411Z,5.50
2018-04-26T22:01:14.786Z,5.27
2018-04-26T22:03:58.244Z,6.17
2018-04-26T22:06:25.900Z,4.63
2018-04-26T22:08:53.564Z,4.77
2018-04-26T22:11:21.285Z,5.07
2018-04-26T22:13:48.890Z,6.53
2018-04-26T22:16:16.567Z,5.67
2018-04-26T22:18:44.166Z,5.40
2018-04-26T22:21:11.835Z,5.67
2018-04-26T22:23:39.491Z,8.43
2018-04-26T22:26:07.094Z,6.73
2018-04-26T22:28:34.750Z,7.30
2018-04-26T22:31:02.456Z,6.73
2018-04-26T22:33:30.074Z,5.40
2018-04-26T22:35:57.718Z,6.37
2018-04-26T22:38:25.326Z,6.47
2018-04-26T22:40:52.936Z,6.80
2018-04-26T22:43:20.575Z,6.03
2018-04-26T22:45:48.174Z,5.50
2018-04-26T22:48:15.867Z,7.53
2018-04-26T22:50:43.543Z,9.90
2018-04-26T22:53:11.206Z,11.30
2018-04-26T22:55:38.911Z,9.30
2018-04-26T22:58:06.638Z,10.10
2018-04-26T23:00:34.246Z,10.77
2018-04-26T23:03:01.859Z,11.97
2018-04-26T23:05:29.583Z,13.37
2018-04-26T23:07:57.186Z,9.67
2018-04-26T23:10:24.895Z,12.50
2018-04-26T23:12:52.511Z,12.17
2018-04-26T23:15:20.164Z,10.07
2018-04-26T23:17:47.826Z,9.57
2018-04-26T23:20:15.494Z,10.60
2018-04-26T23:22:43.217Z,9.10
2018-04-26T23:25:10.899Z,10.43
2018-04-26T23:27:38.522Z,10.23
2018-04-26T23:30:06.132Z,11.63
2018-04-26T23:32:33.779Z,10.73
2018-04-26T23:35:01.501Z,10.97
2018-04-26T23:37:29.143Z,11.90
2018-04-26T23:39:56.759Z,11.33
2018-04-26T23:42:24.371Z,12.83
2018-04-26T23:44:52.028Z,12.87
2018-04-26T23:47:19.751Z,12.87
2018-04-26T23:49:47.359Z,13.13
2018-04-26T23:52:15.045Z,13.43
2018-04-26T23:54:42.776Z,14.87
2018-04-26T23:57:10.386Z,14.53
2018-04-26T23:59:38.009Z,13.83
